Time;durP1;ratioP1;P1;durP2;ratioP2;P2;SDS_P1;SDS_P2;PMS_P1;PMS_P2;Temp;Humidity;BMP_temperature;BMP_pressure;BME280_temperature;BME280_humidity;BME280_pressure;Samples;Min_cycle;Max_cycle;Signal;HPM_P1;HPM_P2
2022/04/23 00:02:11;;;;;;;7.95;2.95;;;;;;;;;;4928100;29;20063;-74
2022/04/23 00:04:43;;;;;;;9.68;3.28;;;;;;;;;;4926705;29;20059;-74
2022/04/23 00:07:13;;;;;;;3.95;2.33;;;;;;;;;;4919823;29;20043;-75
2022/04/23 00:09:43;;;;;;;5.15;2.10;;;;;;;;;;4919489;29;20598;-74
2022/04/23 00:12:16;;;;;;;6.53;2.65;;;;;;;;;;4917506;29;20412;-74
2022/04/23 00:14:47;;;;;;;7.60;2.22;;;;;;;;;;4918361;29;20052;-75
2022/04/23 00:17:18;;;;;;;5.25;2.30;;;;;;;;;;4918304;29;20051;-75
2022/04/23 00:19:48;;;;;;;13.57;2.75;;;;;;;;;;4917734;29;20508;-74
2022/04/23 00:22:18;;;;;;;9.10;2.95;;;;;;;;;;4920647;29;20044;-75
2022/04/23 00:24:48;;;;;;;4.18;2.30;;;;;;;;;;4925850;29;20054;-73
2022/04/23 00:27:18;;;;;;;7.60;2.78;;;;;;;;;;4931127;29;20062;-75
2022/04/23 00:29:48;;;;;;;6.78;2.42;;;;;;;;;;4911640;29;20047;-72
2022/04/23 00:32:18;;;;;;;8.77;2.70;;;;;;;;;;4930516;29;20050;-75
2022/04/23 00:34:49;;;;;;;9.77;2.88;;;;;;;;;;4931742;29;20055;-75
2022/04/23 00:37:18;;;;;;;10.13;2.50;;;;;;;;;;4931831;29;20063;-75
2022/04/23 00:39:48;;;;;;;9.48;2.60;;;;;;;;;;4932333;29;20500;-75
2022/04/23 00:42:18;;;;;;;3.13;2.25;;;;;;;;;;4931651;29;20522;-74
2022/04/23 00:44:48;;;;;;;10.52;2.20;;;;;;;;;;4931887;29;20059;-75
2022/04/23 00:47:22;;;;;;;8.82;3.00;;;;;;;;;;4931886;29;20039;-75
2022/04/23 00:49:52;;;;;;;15.00;2.60;;;;;;;;;;4931077;29;20048;-75
2022/04/23 00:52:23;;;;;;;7.72;2.70;;;;;;;;;;4931532;29;20070;-75
2022/04/23 00:54:52;;;;;;;5.78;2.95;;;;;;;;;;4930054;29;20439;-75
2022/04/23 00:57:22;;;;;;;8.27;2.60;;;;;;;;;;4932104;29;20078;-73
2022/04/23 00:59:53;;;;;;;7.85;2.85;;;;;;;;;;4931692;29;20067;-74
2022/04/23 01:02:23;;;;;;;;;;;;;;;;;;4932570;29;20052;-73
2022/04/23 01:04:53;;;;;;;8.90;2.92;;;;;;;;;;4928141;29;20043;-73
2022/04/23 01:07:23;;;;;;;7.20;3.15;;;;;;;;;;4924087;29;20040;-74
2022/04/23 01:09:53;;;;;;;7.15;2.92;;;;;;;;;;4930711;29;20062;-74
2022/04/23 01:12:23;;;;;;;6.82;3.25;;;;;;;;;;4913166;29;20051;-75
2022/04/23 01:15:06;;;;;;;5.75;2.70;;;;;;;;;;4931012;29;20483;-74
2022/04/23 01:17:38;;;;;;;7.18;3.17;;;;;;;;;;4931744;29;20384;-74
2022/04/23 01:20:13;;;;;;;4.93;2.60;;;;;;;;;;4931384;29;20056;-74
2022/04/23 01:22:45;;;;;;;3.45;2.15;;;;;;;;;;4913817;29;20062;-75
2022/04/23 01:25:15;;;;;;;3.05;1.85;;;;;;;;;;4932022;29;20048;-74
2022/04/23 01:27:48;;;;;;;6.55;1.77;;;;;;;;;;4931436;29;20426;-75
2022/04/23 01:30:18;;;;;;;4.45;1.70;;;;;;;;;;4931551;29;20047;-74
2022/04/23 01:32:48;;;;;;;3.38;1.67;;;;;;;;;;4931339;29;20043;-75
2022/04/23 01:35:19;;;;;;;12.23;1.23;;;;;;;;;;4931036;29;20063;-77
2022/04/23 01:37:48;;;;;;;2.05;1.10;;;;;;;;;;4931394;29;20051;-76
2022/04/23 01:40:19;;;;;;;11.05;1.73;;;;;;;;;;4931154;29;20054;-77
2022/04/23 01:42:49;;;;;;;3.15;1.15;;;;;;;;;;4932028;29;20055;-75
2022/04/23 01:45:19;;;;;;;2.88;0.80;;;;;;;;;;4931405;29;20048;-74
2022/04/23 01:47:49;;;;;;;5.07;1.00;;;;;;;;;;4931597;29;20055;-74
2022/04/23 01:50:19;;;;;;;4.35;1.02;;;;;;;;;;4931143;29;20051;-73
2022/04/23 01:52:49;;;;;;;8.77;1.20;;;;;;;;;;4930319;29;20043;-75
2022/04/23 01:55:19;;;;;;;4.82;1.27;;;;;;;;;;4931100;29;20051;-73
2022/04/23 01:57:49;;;;;;;5.55;1.00;;;;;;;;;;4914497;29;20431;-74
2022/04/23 02:00:19;;;;;;;2.35;1.17;;;;;;;;;;4930695;29;20070;-74
2022/04/23 02:02:49;;;;;;;2.28;1.10;;;;;;;;;;4930150;29;20066;-75
2022/04/23 02:05:19;;;;;;;3.13;1.50;;;;;;;;;;4930572;29;20460;-73
2022/04/23 02:07:49;;;;;;;3.55;1.02;;;;;;;;;;4930601;29;20055;-75
2022/04/23 02:10:19;;;;;;;3.63;1.00;;;;;;;;;;4931209;29;20051;-75
2022/04/23 02:12:51;;;;;;;3.78;1.20;;;;;;;;;;4930397;29;20053;-75
2022/04/23 02:15:22;;;;;;;5.53;1.33;;;;;;;;;;4913039;29;20137;-74
2022/04/23 02:17:52;;;;;;;2.13;0.95;;;;;;;;;;4930783;29;20448;-75
2022/04/23 02:20:23;;;;;;;1.98;0.90;;;;;;;;;;4929071;29;20173;-73
2022/04/23 02:22:53;;;;;;;2.67;1.27;;;;;;;;;;4930704;29;20058;-75
2022/04/23 02:25:24;;;;;;;4.50;1.10;;;;;;;;;;4930839;29;20047;-75
2022/04/23 02:27:55;;;;;;;1.42;0.85;;;;;;;;;;4930475;29;20385;-76
2022/04/23 02:30:25;;;;;;;1.90;1.08;;;;;;;;;;4930541;29;20043;-73
2022/04/23 02:32:55;;;;;;;1.67;0.88;;;;;;;;;;4930830;29;20518;-75
2022/04/23 02:35:25;;;;;;;1.42;1.00;;;;;;;;;;4930462;29;20051;-76
2022/04/23 02:38:01;;;;;;;2.13;1.10;;;;;;;;;;4930290;29;20628;-75
2022/04/23 02:40:32;;;;;;;7.53;1.23;;;;;;;;;;4930206;29;20059;-74
2022/04/23 02:43:03;;;;;;;3.00;1.40;;;;;;;;;;4930408;29;20055;-74
2022/04/23 02:45:36;;;;;;;3.85;1.40;;;;;;;;;;4929948;29;20047;-74
2022/04/23 02:48:07;;;;;;;4.03;1.35;;;;;;;;;;4929708;29;20483;-74
2022/04/23 02:50:38;;;;;;;2.53;1.40;;;;;;;;;;4928558;29;20051;-74
2022/04/23 02:53:08;;;;;;;;;;;;;;;;;;4929951;29;20050;-73
2022/04/23 02:55:39;;;;;;;5.85;1.20;;;;;;;;;;4928720;29;20288;-76
2022/04/23 02:58:10;;;;;;;4.97;1.13;;;;;;;;;;4929206;29;20055;-73
2022/04/23 03:00:44;;;;;;;3.50;1.90;;;;;;;;;;4929435;29;20529;-73
2022/04/23 03:03:15;;;;;;;2.42;1.35;;;;;;;;;;4929539;29;20058;-73
2022/04/23 03:05:46;;;;;;;8.73;1.50;;;;;;;;;;4929352;29;20610;-75
2022/04/23 03:08:16;;;;;;;2.15;1.42;;;;;;;;;;4929226;29;20047;-72
2022/04/23 03:10:48;;;;;;;3.80;1.40;;;;;;;;;;4929782;29;20043;-72
2022/04/23 03:13:19;;;;;;;7.90;1.70;;;;;;;;;;4928918;29;20051;-73
2022/04/23 03:15:49;;;;;;;4.60;1.58;;;;;;;;;;4929735;29;20055;-73
2022/04/23 03:18:19;;;;;;;4.55;1.40;;;;;;;;;;4929881;29;20047;-74
2022/04/23 03:20:49;;;;;;;4.07;1.50;;;;;;;;;;4929265;29;20055;-73
2022/04/23 03:23:19;;;;;;;2.40;1.42;;;;;;;;;;4929327;29;20046;-75
2022/04/23 03:25:49;;;;;;;2.27;1.20;;;;;;;;;;4929304;29;20420;-73
2022/04/23 03:28:20;;;;;;;9.05;1.40;;;;;;;;;;4929227;29;20062;-74
2022/04/23 03:30:50;;;;;;;3.58;1.80;;;;;;;;;;4928654;29;20051;-74
2022/04/23 03:33:20;;;;;;;5.05;2.25;;;;;;;;;;4929206;29;20044;-74
2022/04/23 03:35:49;;;;;;;4.20;2.08;;;;;;;;;;4928346;29;20055;-74
2022/04/23 03:38:20;;;;;;;13.27;3.05;;;;;;;;;;4929018;29;20063;-74
2022/04/23 03:40:53;;;;;;;6.10;2.70;;;;;;;;;;4929475;29;20048;-75
2022/04/23 03:43:25;;;;;;;8.50;2.40;;;;;;;;;;4928545;29;20103;-73
2022/04/23 03:45:55;;;;;;;4.32;2.40;;;;;;;;;;4926989;29;20550;-75
2022/04/23 03:48:25;;;;;;;5.50;2.38;;;;;;;;;;4927777;29;20427;-74
2022/04/23 03:50:55;;;;;;;3.40;2.00;;;;;;;;;;4929134;29;20077;-72
2022/04/23 03:53:25;;;;;;;5.43;2.10;;;;;;;;;;4929537;29;20055;-74
2022/04/23 03:55:55;;;;;;;9.13;1.88;;;;;;;;;;4929335;29;20055;-74
2022/04/23 03:58:28;;;;;;;3.90;1.50;;;;;;;;;;4929504;29;20052;-76
2022/04/23 04:00:58;;;;;;;5.82;1.35;;;;;;;;;;4932364;29;20058;-73
2022/04/23 04:03:29;;;;;;;;;;;;;;;;;;4915997;29;20061;-74
2022/04/23 04:05:59;;;;;;;2.97;1.33;;;;;;;;;;4933271;29;19930;-74
2022/04/23 04:08:29;;;;;;;5.38;1.70;;;;;;;;;;4932655;29;20048;-74
2022/04/23 04:10:59;;;;;;;5.15;1.65;;;;;;;;;;4932619;29;20048;-74
2022/04/23 04:13:29;;;;;;;3.28;1.30;;;;;;;;;;4933793;29;20412;-74
2022/04/23 04:15:59;;;;;;;3.35;1.50;;;;;;;;;;4932458;29;20427;-74
2022/04/23 04:18:30;;;;;;;4.60;1.60;;;;;;;;;;4932623;29;21107;-73
2022/04/23 04:21:00;;;;;;;5.32;1.10;;;;;;;;;;4932754;29;20051;-75
2022/04/23 04:23:30;;;;;;;10.30;1.75;;;;;;;;;;4932411;29;20048;-74
2022/04/23 04:26:00;;;;;;;3.03;1.30;;;;;;;;;;4932868;29;20048;-76
2022/04/23 04:28:30;;;;;;;2.03;1.20;;;;;;;;;;4933133;29;20083;-73
2022/04/23 04:33:49;;;;;;;3.58;1.20;;;;;;;;;;4932915;29;20043;-72
2022/04/23 04:36:19;;;;;;;2.90;1.20;;;;;;;;;;4932051;29;20048;-74
2022/04/23 04:38:48;;;;;;;1.73;1.10;;;;;;;;;;4932304;29;20855;-74
2022/04/23 04:41:19;;;;;;;4.05;1.40;;;;;;;;;;4932329;29;20056;-75
2022/04/23 04:43:49;;;;;;;6.25;1.88;;;;;;;;;;4931782;29;20063;-73
2022/04/23 04:46:18;;;;;;;2.72;1.27;;;;;;;;;;4931884;29;20590;-76
2022/04/23 04:48:49;;;;;;;1.80;1.17;;;;;;;;;;4931729;29;20553;-73
2022/04/23 04:51:19;;;;;;;3.87;1.37;;;;;;;;;;4931989;29;20517;-75
2022/04/23 04:53:51;;;;;;;9.63;1.85;;;;;;;;;;4931446;29;20052;-75
2022/04/23 04:56:23;;;;;;;7.22;1.75;;;;;;;;;;4931897;29;20040;-74
2022/04/23 04:58:53;;;;;;;6.40;1.97;;;;;;;;;;4931790;29;20515;-73
2022/04/23 05:01:23;;;;;;;5.65;2.00;;;;;;;;;;4914046;29;20511;-75
2022/04/23 05:03:54;;;;;;;5.93;1.67;;;;;;;;;;4931153;29;20047;-74
2022/04/23 05:06:24;;;;;;;7.07;1.80;;;;;;;;;;4931519;29;20515;-72
2022/04/23 05:08:54;;;;;;;4.85;1.63;;;;;;;;;;4932064;29;20439;-75
2022/04/23 05:11:27;;;;;;;4.72;1.85;;;;;;;;;;4931442;29;20056;-73
2022/04/23 05:13:57;;;;;;;4.45;1.40;;;;;;;;;;4932253;29;20052;-74
2022/04/23 05:16:27;;;;;;;2.10;1.65;;;;;;;;;;4931929;29;20059;-75
2022/04/23 05:18:57;;;;;;;7.00;2.17;;;;;;;;;;4914371;29;20064;-75
2022/04/23 05:21:27;;;;;;;4.95;1.90;;;;;;;;;;4931782;29;20066;-73
2022/04/23 05:23:57;;;;;;;4.78;1.55;;;;;;;;;;4932100;29;20050;-74
2022/04/23 05:26:26;;;;;;;9.23;1.80;;;;;;;;;;4931424;29;20048;-72
2022/04/23 05:28:57;;;;;;;6.10;1.73;;;;;;;;;;4931872;29;20051;-73
2022/04/23 05:31:27;;;;;;;2.80;1.50;;;;;;;;;;4931498;29;20043;-75
2022/04/23 05:33:57;;;;;;;5.38;1.67;;;;;;;;;;4931590;29;20518;-73
2022/04/23 05:36:27;;;;;;;4.10;1.60;;;;;;;;;;4931469;29;20055;-72
2022/04/23 05:38:56;;;;;;;4.25;1.75;;;;;;;;;;4913828;29;20402;-75
2022/04/23 05:41:26;;;;;;;3.58;1.80;;;;;;;;;;4930822;29;20062;-75
2022/04/23 05:43:56;;;;;;;5.80;1.73;;;;;;;;;;4930956;29;20062;-75
2022/04/23 05:46:26;;;;;;;2.58;1.58;;;;;;;;;;4930826;29;20052;-73
2022/04/23 05:48:56;;;;;;;3.90;1.80;;;;;;;;;;4931487;29;20043;-71
2022/04/23 05:51:27;;;;;;;3.35;1.63;;;;;;;;;;4930252;29;20059;-74
2022/04/23 05:53:56;;;;;;;5.75;1.52;;;;;;;;;;4931723;29;20051;-72
2022/04/23 05:56:32;;;;;;;7.88;1.55;;;;;;;;;;4931782;29;20058;-75
2022/04/23 05:59:02;;;;;;;9.73;1.83;;;;;;;;;;4913466;29;20056;-72
2022/04/23 06:01:32;;;;;;;7.07;1.55;;;;;;;;;;4930743;29;20047;-72
2022/04/23 06:04:02;;;;;;;5.40;1.75;;;;;;;;;;4931312;29;20055;-76
2022/04/23 06:06:32;;;;;;;3.53;1.70;;;;;;;;;;4930246;29;20542;-76
2022/04/23 06:09:02;;;;;;;4.75;2.00;;;;;;;;;;4931004;29;20052;-75
2022/04/23 06:11:31;;;;;;;3.25;1.77;;;;;;;;;;4914479;29;20617;-72
2022/04/23 06:14:01;;;;;;;5.32;1.95;;;;;;;;;;4930572;29;20044;-74
2022/04/23 06:16:31;;;;;;;3.33;1.80;;;;;;;;;;4930849;29;20044;-76
2022/04/23 06:19:01;;;;;;;6.05;1.90;;;;;;;;;;4929957;29;20088;-77
2022/04/23 06:21:32;;;;;;;11.35;2.00;;;;;;;;;;4930802;29;20510;-73
2022/04/23 06:24:01;;;;;;;7.03;1.83;;;;;;;;;;4929571;29;20700;-75
2022/04/23 06:26:32;;;;;;;5.90;1.75;;;;;;;;;;4930274;29;20055;-76
2022/04/23 06:29:02;;;;;;;5.93;1.80;;;;;;;;;;4929986;29;20040;-74
2022/04/23 06:31:32;;;;;;;2.08;1.75;;;;;;;;;;4912016;29;20515;-74
2022/04/23 06:34:02;;;;;;;5.15;1.75;;;;;;;;;;4929329;29;20055;-73
2022/04/23 06:36:33;;;;;;;7.25;1.73;;;;;;;;;;4928942;29;20523;-74
2022/04/23 06:39:07;;;;;;;6.45;1.67;;;;;;;;;;4930234;29;20530;-75
2022/04/23 06:41:36;;;;;;;6.20;1.92;;;;;;;;;;4930041;29;20051;-76
2022/04/23 06:44:07;;;;;;;6.93;2.00;;;;;;;;;;4913188;29;20048;-72
2022/04/23 06:46:38;;;;;;;9.85;2.00;;;;;;;;;;4912916;29;20295;-76
2022/04/23 06:49:11;;;;;;;2.65;1.60;;;;;;;;;;4929245;29;20051;-74
2022/04/23 06:51:40;;;;;;;;;;;;;;;;;;4930344;29;20575;-75
2022/04/23 06:54:11;;;;;;;6.93;2.20;;;;;;;;;;4929533;29;19934;-74
2022/04/23 06:56:41;;;;;;;4.22;2.30;;;;;;;;;;4929757;29;20051;-75
2022/04/23 06:59:12;;;;;;;5.78;2.60;;;;;;;;;;4929900;29;20059;-74
2022/04/23 07:01:43;;;;;;;8.25;2.20;;;;;;;;;;4929478;29;20534;-73
2022/04/23 07:04:13;;;;;;;3.70;1.80;;;;;;;;;;4927262;29;20055;-73
2022/04/23 07:06:42;;;;;;;2.88;1.77;;;;;;;;;;4929759;29;20051;-73
2022/04/23 07:09:13;;;;;;;2.90;1.58;;;;;;;;;;4930127;29;20403;-74
2022/04/23 07:11:43;;;;;;;4.78;1.67;;;;;;;;;;4929670;29;20043;-72
2022/04/23 07:14:13;;;;;;;2.60;1.73;;;;;;;;;;4929504;29;20048;-72
2022/04/23 07:16:43;;;;;;;3.70;1.60;;;;;;;;;;4929338;29;20548;-73
2022/04/23 07:19:13;;;;;;;4.68;1.90;;;;;;;;;;4929318;29;20051;-73
2022/04/23 07:21:43;;;;;;;4.32;1.73;;;;;;;;;;4929221;29;20060;-73
2022/04/23 07:24:20;;;;;;;7.25;1.88;;;;;;;;;;4913789;29;20052;-72
2022/04/23 07:26:50;;;;;;;2.97;1.80;;;;;;;;;;4929687;29;20066;-72
2022/04/23 07:29:20;;;;;;;9.13;1.85;;;;;;;;;;4929666;29;21074;-74
2022/04/23 07:31:51;;;;;;;5.85;2.00;;;;;;;;;;4929789;29;20055;-75
2022/04/23 07:40:05;;;;;;;6.03;1.30;;;;;;;;;;4928797;29;20044;-72
2022/04/23 07:42:35;;;;;;;5.80;1.50;;;;;;;;;;4913190;29;20605;-75
2022/04/23 07:45:05;;;;;;;1.88;1.27;;;;;;;;;;4929254;29;20530;-75
2022/04/23 07:47:35;;;;;;;5.03;1.20;;;;;;;;;;4929489;29;20052;-73
2022/04/23 07:50:08;;;;;;;2.78;1.40;;;;;;;;;;4929656;29;20047;-73
2022/04/23 07:52:38;;;;;;;3.05;1.30;;;;;;;;;;4928690;29;20052;-75
2022/04/23 07:55:09;;;;;;;4.80;1.27;;;;;;;;;;4929467;29;20059;-75
2022/04/23 07:57:39;;;;;;;2.53;1.50;;;;;;;;;;4928732;29;20047;-73
2022/04/23 08:00:09;;;;;;;3.75;1.38;;;;;;;;;;4929399;29;20056;-74
2022/04/23 08:02:38;;;;;;;2.13;1.20;;;;;;;;;;4928913;29;20055;-74
2022/04/23 08:05:10;;;;;;;2.45;1.52;;;;;;;;;;4928383;29;20059;-74
2022/04/23 08:07:43;;;;;;;4.30;1.50;;;;;;;;;;4911327;29;20055;-74
2022/04/23 08:10:13;;;;;;;3.55;1.70;;;;;;;;;;4928871;29;20078;-75
2022/04/23 08:12:43;;;;;;;3.53;1.50;;;;;;;;;;4927817;29;20056;-74
2022/04/23 08:15:13;;;;;;;2.67;1.38;;;;;;;;;;4929128;29;20044;-74
2022/04/23 08:17:42;;;;;;;4.18;1.63;;;;;;;;;;4929336;29;20055;-74
2022/04/23 08:20:13;;;;;;;2.65;1.30;;;;;;;;;;4928405;29;20060;-73
2022/04/23 08:22:42;;;;;;;4.78;1.40;;;;;;;;;;4928013;29;20427;-74
2022/04/23 08:25:12;;;;;;;2.05;1.40;;;;;;;;;;4928600;29;20051;-73
2022/04/23 08:27:50;;;;;;;2.35;1.38;;;;;;;;;;4929683;29;20060;-74
2022/04/23 08:30:34;;;;;;;1.85;1.30;;;;;;;;;;4928717;29;20047;-75
2022/04/23 08:33:06;;;;;;;3.17;1.45;;;;;;;;;;4928887;29;20067;-76
2022/04/23 08:35:37;;;;;;;4.13;1.58;;;;;;;;;;4929006;29;20118;-72
2022/04/23 08:38:09;;;;;;;4.50;1.42;;;;;;;;;;4928486;29;20051;-74
2022/04/23 08:40:44;;;;;;;3.28;1.50;;;;;;;;;;4911053;29;20534;-74
2022/04/23 08:43:14;;;;;;;3.78;1.67;;;;;;;;;;4928712;29;20048;-74
2022/04/23 08:45:44;;;;;;;3.00;1.42;;;;;;;;;;4929147;29;20047;-75
2022/04/23 08:48:17;;;;;;;6.45;1.70;;;;;;;;;;4932077;29;20055;-74
2022/04/23 08:50:52;;;;;;;6.63;2.03;;;;;;;;;;4931542;29;20063;-74
2022/04/23 08:53:27;;;;;;;8.65;1.63;;;;;;;;;;4932020;29;20523;-73
2022/04/23 08:56:02;;;;;;;5.88;1.90;;;;;;;;;;4932469;29;20051;-75
2022/04/23 08:58:32;;;;;;;3.73;1.47;;;;;;;;;;4931792;29;20075;-76
2022/04/23 09:01:02;;;;;;;5.90;1.60;;;;;;;;;;4932157;29;20048;-74
2022/04/23 09:03:32;;;;;;;1.95;1.50;;;;;;;;;;4931883;29;20062;-76
2022/04/23 09:06:02;;;;;;;2.47;1.60;;;;;;;;;;4931414;29;20059;-75
2022/04/23 09:08:32;;;;;;;7.78;1.55;;;;;;;;;;4931846;29;20055;-74
2022/04/23 09:11:02;;;;;;;4.65;1.10;;;;;;;;;;4931832;29;20062;-75
2022/04/23 09:13:32;;;;;;;1.85;0.93;;;;;;;;;;4931711;29;20051;-76
2022/04/23 09:24:46;;;;;;;0.75;0.75;;;;;;;;;;4931816;29;20040;-74
2022/04/23 09:27:17;;;;;;;6.85;0.90;;;;;;;;;;4931592;29;20503;-75
2022/04/23 09:30:07;;;;;;;6.28;1.00;;;;;;;;;;4931408;29;20055;-77
2022/04/23 09:32:38;;;;;;;1.60;0.80;;;;;;;;;;4931059;29;20214;-72
2022/04/23 09:35:11;;;;;;;1.73;0.82;;;;;;;;;;4931756;29;20044;-72
2022/04/23 09:40:29;;;;;;;2.58;0.68;;;;;;;;;;4931308;29;20054;-74
2022/04/23 09:43:05;;;;;;;1.83;0.75;;;;;;;;;;4931469;29;20112;-75
2022/04/23 09:45:44;;;;;;;0.43;0.40;;;;;;;;;;4931914;29;20058;-73
2022/04/23 09:48:16;;;;;;;1.40;0.50;;;;;;;;;;4931159;29;20769;-74
2022/04/23 09:50:47;;;;;;;0.50;0.50;;;;;;;;;;4931101;29;20047;-73
2022/04/23 09:53:20;;;;;;;0.90;0.70;;;;;;;;;;4930176;29;20043;-75
2022/04/23 09:55:50;;;;;;;2.75;0.70;;;;;;;;;;4930084;29;20056;-75
2022/04/23 09:58:21;;;;;;;2.25;0.95;;;;;;;;;;4929813;29;20056;-75
2022/04/23 10:00:51;;;;;;;1.80;0.70;;;;;;;;;;4929617;29;20056;-73
2022/04/23 10:03:28;;;;;;;0.90;0.70;;;;;;;;;;4929224;29;20047;-73
2022/04/23 10:06:02;;;;;;;1.08;0.70;;;;;;;;;;4928403;29;20052;-72
2022/04/23 10:08:33;;;;;;;1.17;0.60;;;;;;;;;;4929364;29;20055;-73
2022/04/23 10:11:15;;;;;;;0.30;0.30;;;;;;;;;;4913338;29;20059;-74
2022/04/23 10:13:53;;;;;;;0.25;0.25;;;;;;;;;;4930337;29;20048;-75
2022/04/23 10:16:24;;;;;;;1.15;0.40;;;;;;;;;;4929959;29;20040;-73
2022/04/23 10:18:56;;;;;;;4.30;0.93;;;;;;;;;;4928043;29;20054;-73
2022/04/23 10:21:53;;;;;;;1.60;0.90;;;;;;;;;;4910118;29;20071;-73
2022/04/23 10:24:56;;;;;;;0.63;0.63;;;;;;;;;;4930253;29;20495;-74
2022/04/23 10:27:28;;;;;;;0.85;0.60;;;;;;;;;;4930200;29;20051;-71
2022/04/23 10:30:04;;;;;;;4.50;0.75;;;;;;;;;;4930897;29;20060;-74
2022/04/23 10:32:39;;;;;;;3.42;0.90;;;;;;;;;;4930406;29;20062;-74
2022/04/23 10:35:30;;;;;;;4.97;1.33;;;;;;;;;;4928969;29;20063;-73
2022/04/23 10:38:19;;;;;;;0.57;0.47;;;;;;;;;;4909156;29;20063;-73
2022/04/23 10:40:51;;;;;;;2.75;0.60;;;;;;;;;;4929920;29;20676;-72
2022/04/23 10:43:22;;;;;;;1.88;0.80;;;;;;;;;;4929311;29;20530;-75
2022/04/23 10:45:51;;;;;;;1.90;0.93;;;;;;;;;;4912875;29;20064;-75
2022/04/23 10:48:24;;;;;;;2.28;0.70;;;;;;;;;;4913809;29;20431;-74
2022/04/23 10:51:11;;;;;;;6.18;4.88;;;;;;;;;;4930283;29;20052;-75
2022/04/23 10:53:46;;;;;;;2.53;0.90;;;;;;;;;;4929527;29;20541;-75
2022/04/23 10:56:19;;;;;;;4.32;0.95;;;;;;;;;;4930074;29;20732;-75
2022/04/23 10:58:50;;;;;;;1.73;0.70;;;;;;;;;;4930131;29;20050;-75
2022/04/23 11:01:26;;;;;;;5.68;0.80;;;;;;;;;;4913824;29;20044;-75
2022/04/23 11:04:07;;;;;;;2.95;0.93;;;;;;;;;;4929446;29;20044;-75
2022/04/23 11:12:36;;;;;;;2.22;0.65;;;;;;;;;;4930242;29;20052;-73
2022/04/23 11:15:24;;;;;;;2.67;0.70;;;;;;;;;;4929807;29;20047;-75
2022/04/23 11:17:58;;;;;;;1.33;0.63;;;;;;;;;;4928009;29;20060;-74
2022/04/23 11:20:35;;;;;;;3.15;0.63;;;;;;;;;;4929620;29;20511;-74
2022/04/23 11:23:06;;;;;;;0.60;0.60;;;;;;;;;;4929319;29;20048;-74
2022/04/23 11:25:36;;;;;;;1.83;0.70;;;;;;;;;;4929811;29;20044;-75
2022/04/23 11:28:14;;;;;;;2.15;0.77;;;;;;;;;;4929029;29;20050;-76
2022/04/23 11:30:44;;;;;;;1.60;0.52;;;;;;;;;;4929379;29;20039;-80
2022/04/23 11:33:14;;;;;;;2.67;0.70;;;;;;;;;;4928578;29;20063;-75
2022/04/23 11:35:44;;;;;;;3.80;0.65;;;;;;;;;;4928958;29;20055;-72
2022/04/23 11:38:21;;;;;;;3.22;1.33;;;;;;;;;;4929346;29;20084;-75
2022/04/23 11:40:51;;;;;;;4.45;0.90;;;;;;;;;;4929384;29;20520;-72
2022/04/23 11:43:29;;;;;;;5.03;1.15;;;;;;;;;;4911439;29;20047;-72
2022/04/23 11:46:03;;;;;;;3.65;0.93;;;;;;;;;;4929323;29;20055;-76
2022/04/23 11:48:48;;;;;;;6.60;0.80;;;;;;;;;;4928788;29;20508;-75
2022/04/23 11:51:21;;;;;;;2.47;0.70;;;;;;;;;;4928640;29;20051;-74
2022/04/23 11:53:56;;;;;;;2.47;0.88;;;;;;;;;;4928740;29;20051;-74
2022/04/23 11:56:30;;;;;;;4.63;0.70;;;;;;;;;;4911667;29;20051;-75
2022/04/23 11:59:06;;;;;;;3.15;0.70;;;;;;;;;;4927899;29;20047;-75
2022/04/23 12:01:41;;;;;;;3.97;1.05;;;;;;;;;;4928381;29;20070;-75
2022/04/23 12:04:13;;;;;;;7.00;1.10;;;;;;;;;;4928101;29;20063;-76
2022/04/23 12:06:45;;;;;;;5.78;1.02;;;;;;;;;;4928141;29;20067;-76
2022/04/23 12:09:15;;;;;;;7.45;1.17;;;;;;;;;;4926782;29;20534;-75
2022/04/23 12:11:59;;;;;;;0.82;0.70;;;;;;;;;;4928728;29;20056;-80
2022/04/23 12:14:30;;;;;;;1.00;0.90;;;;;;;;;;4927998;29;20247;-75
2022/04/23 12:17:07;;;;;;;8.45;1.42;;;;;;;;;;4928440;29;20059;-75
2022/04/23 12:19:38;;;;;;;2.20;1.00;;;;;;;;;;4926771;29;20752;-75
2022/04/23 12:22:08;;;;;;;9.70;1.20;;;;;;;;;;4930653;29;20055;-76
2022/04/23 12:24:39;;;;;;;2.20;0.70;;;;;;;;;;4932252;29;20070;-75
2022/04/23 12:27:09;;;;;;;6.20;1.50;;;;;;;;;;4932313;29;20060;-80
2022/04/23 12:41:19;;;;;;;0.90;0.70;;;;;;;;;;4931794;29;20052;-76
2022/04/23 12:43:49;;;;;;;4.85;0.95;;;;;;;;;;4931252;29;20058;-75
2022/04/23 12:46:19;;;;;;;1.13;0.68;;;;;;;;;;4929424;29;20555;-78
2022/04/23 12:48:59;;;;;;;6.60;0.98;;;;;;;;;;4930819;29;20507;-75
2022/04/23 12:51:29;;;;;;;2.60;1.02;;;;;;;;;;4931633;29;20059;-77
2022/04/23 12:54:01;;;;;;;2.88;1.10;;;;;;;;;;4915285;29;20051;-75
2022/04/23 12:56:37;;;;;;;4.03;1.10;;;;;;;;;;4932149;29;20044;-75
2022/04/23 12:59:08;;;;;;;9.88;0.98;;;;;;;;;;4932120;29;20047;-76
2022/04/23 13:01:39;;;;;;;;;;;;;;;;;;4932364;29;20412;-76
2022/04/23 13:04:11;;;;;;;5.22;1.00;;;;;;;;;;4931792;29;20297;-75
2022/04/23 13:09:43;;;;;;;4.28;0.60;;;;;;;;;;4900230;29;20532;-76
2022/04/23 13:12:13;;;;;;;3.67;1.20;;;;;;;;;;4931842;29;20396;-76
2022/04/23 13:14:44;;;;;;;0.52;0.50;;;;;;;;;;4931870;29;20051;-75
2022/04/23 13:17:14;;;;;;;3.67;0.80;;;;;;;;;;4931695;29;20051;-74
2022/04/23 13:19:44;;;;;;;2.50;0.85;;;;;;;;;;4931886;29;20051;-74
2022/04/23 13:22:13;;;;;;;0.77;0.75;;;;;;;;;;4931206;29;20074;-76
2022/04/23 13:24:43;;;;;;;5.93;0.90;;;;;;;;;;4931587;29;20509;-76
2022/04/23 13:27:13;;;;;;;2.63;0.70;;;;;;;;;;4914379;29;20376;-75
2022/04/23 13:29:44;;;;;;;2.25;0.88;;;;;;;;;;4931224;29;20047;-76
2022/04/23 13:32:13;;;;;;;0.60;0.60;;;;;;;;;;4930764;29;20522;-75
2022/04/23 13:34:44;;;;;;;1.02;0.50;;;;;;;;;;4931520;29;20063;-76
2022/04/23 13:37:13;;;;;;;14.98;1.08;;;;;;;;;;4931570;29;20047;-77
2022/04/23 13:39:43;;;;;;;6.95;0.75;;;;;;;;;;4931054;29;20048;-76
2022/04/23 13:42:14;;;;;;;7.75;1.30;;;;;;;;;;4931768;29;20070;-76
2022/04/23 13:44:44;;;;;;;0.60;0.60;;;;;;;;;;4931347;29;20055;-77
2022/04/23 13:47:14;;;;;;;2.45;1.13;;;;;;;;;;4931879;29;20047;-80
2022/04/23 13:49:44;;;;;;;5.55;0.82;;;;;;;;;;4931505;29;20063;-78
2022/04/23 13:52:15;;;;;;;4.13;0.90;;;;;;;;;;4927720;29;20063;-75
2022/04/23 13:54:45;;;;;;;1.70;0.85;;;;;;;;;;4927541;29;20052;-76
2022/04/23 13:57:15;;;;;;;5.28;0.95;;;;;;;;;;4926875;29;20059;-75
2022/04/23 13:59:44;;;;;;;5.32;1.45;;;;;;;;;;4930629;29;20499;-76
2022/04/23 14:10:40;;;;;;;1.70;0.80;;;;;;;;;;4930574;29;20063;-81
2022/04/23 14:13:10;;;;;;;3.75;0.90;;;;;;;;;;4930872;29;20044;-77
2022/04/23 14:15:40;;;;;;;6.00;2.80;;;;;;;;;;4930576;29;20515;-77
2022/04/23 14:18:11;;;;;;;3.03;0.88;;;;;;;;;;4930940;29;20047;-79
2022/04/23 14:20:41;;;;;;;9.70;1.35;;;;;;;;;;4930640;29;20062;-76
2022/04/23 14:23:11;;;;;;;7.30;1.23;;;;;;;;;;4929724;29;20096;-76
2022/04/23 14:25:41;;;;;;;10.05;1.65;;;;;;;;;;4930492;29;20047;-77
2022/04/23 14:28:12;;;;;;;1.17;0.70;;;;;;;;;;4913177;29;20104;-77
2022/04/23 14:30:43;;;;;;;2.08;1.00;;;;;;;;;;4930229;29;20507;-77
2022/04/23 14:33:13;;;;;;;2.67;1.35;;;;;;;;;;4930374;29;20047;-76
2022/04/23 14:35:43;;;;;;;8.75;1.58;;;;;;;;;;4929985;29;20063;-76
2022/04/23 14:38:13;;;;;;;2.35;0.68;;;;;;;;;;4930296;29;20055;-76
2022/04/23 14:40:44;;;;;;;1.23;0.70;;;;;;;;;;4929780;29;20055;-76
2022/04/23 14:43:14;;;;;;;5.32;1.25;;;;;;;;;;4928431;29;20419;-77
2022/04/23 14:45:50;;;;;;;4.57;1.17;;;;;;;;;;4929799;29;20330;-75
2022/04/23 14:48:28;;;;;;;3.67;0.80;;;;;;;;;;4928780;29;20051;-77
2022/04/23 14:53:46;;;;;;;6.78;1.00;;;;;;;;;;4930122;29;20062;-77
2022/04/23 14:56:16;;;;;;;1.42;0.90;;;;;;;;;;4930386;29;20415;-77
2022/04/23 14:58:46;;;;;;;13.20;0.95;;;;;;;;;;4929599;29;20055;-76
2022/04/23 15:01:16;;;;;;;3.97;0.65;;;;;;;;;;4929507;29;20054;-76
2022/04/23 15:03:47;;;;;;;2.63;0.70;;;;;;;;;;4930212;29;20066;-76
2022/04/23 15:06:18;;;;;;;3.40;0.80;;;;;;;;;;4929662;29;20055;-74
2022/04/23 15:08:48;;;;;;;10.45;2.10;;;;;;;;;;4929267;29;20090;-75
2022/04/23 15:11:18;;;;;;;1.65;0.68;;;;;;;;;;4929615;29;20840;-75
2022/04/23 15:13:48;;;;;;;0.65;0.60;;;;;;;;;;4928941;29;20083;-74
2022/04/23 15:16:18;;;;;;;6.13;0.90;;;;;;;;;;4928116;29;20534;-75
2022/04/23 15:18:48;;;;;;;1.08;0.93;;;;;;;;;;4929394;29;20054;-78
2022/04/23 15:21:18;;;;;;;2.92;0.68;;;;;;;;;;4929123;29;20059;-76
2022/04/23 15:23:52;;;;;;;17.10;1.65;;;;;;;;;;4929510;29;20400;-77
2022/04/23 15:26:22;;;;;;;1.88;0.85;;;;;;;;;;4929551;29;20059;-79
2022/04/23 15:28:52;;;;;;;2.15;0.60;;;;;;;;;;4928405;29;20048;-76
2022/04/23 15:31:22;;;;;;;7.50;1.55;;;;;;;;;;4929116;29;20055;-75
2022/04/23 15:33:52;;;;;;;3.60;0.73;;;;;;;;;;4928802;29;20118;-76
2022/04/23 15:36:22;;;;;;;3.90;0.60;;;;;;;;;;4927959;29;20051;-74
2022/04/23 15:38:52;;;;;;;4.45;1.50;;;;;;;;;;4928943;29;20503;-75
2022/04/23 15:41:25;;;;;;;2.53;0.75;;;;;;;;;;4928437;29;20090;-76
2022/04/23 15:43:56;;;;;;;1.67;0.73;;;;;;;;;;4929332;29;20059;-79
2022/04/23 15:46:25;;;;;;;1.05;0.40;;;;;;;;;;4929225;29;20043;-77
2022/04/23 15:48:57;;;;;;;1.55;0.40;;;;;;;;;;4929041;29;20530;-75
2022/04/23 15:51:27;;;;;;;18.33;1.85;;;;;;;;;;4910941;29;20055;-81
2022/04/23 15:53:56;;;;;;;3.03;0.50;;;;;;;;;;4928902;29;20048;-78
2022/04/23 15:56:26;;;;;;;3.30;0.73;;;;;;;;;;4935111;29;20051;-76
2022/04/23 15:58:57;;;;;;;2.63;0.50;;;;;;;;;;4935297;29;20074;-76
2022/04/23 16:01:28;;;;;;;3.92;0.65;;;;;;;;;;4935816;29;20055;-75